createdAt,value
2022-12-25T00:01:49.525Z,52.24
2022-12-25T00:04:17.336Z,52.31
2022-12-25T00:06:45.355Z,52.46
2022-12-25T00:09:14.611Z,52.21
2022-12-25T00:11:42.483Z,52.49
2022-12-25T00:14:10.256Z,52.51
2022-12-25T00:16:38.286Z,52.15
2022-12-25T00:19:06.170Z,52.09
2022-12-25T00:21:34.196Z,52.10
2022-12-25T00:24:03.505Z,52.40
2022-12-25T00:26:32.749Z,51.95
2022-12-25T00:29:00.974Z,52.20
2022-12-25T00:31:28.999Z,52.11
2022-12-25T00:33:56.996Z,51.76
2022-12-25T00:36:24.915Z,52.17
2022-12-25T00:38:52.675Z,51.93
2022-12-25T00:41:43.159Z,52.00
2022-12-25T00:44:14.010Z,51.95
2022-12-25T00:46:42.642Z,51.88
2022-12-25T00:49:11.260Z,52.04
2022-12-25T00:51:39.144Z,51.82
2022-12-25T00:54:06.965Z,51.87
2022-12-25T00:56:35.132Z,52.29
2022-12-25T00:59:02.990Z,52.24
2022-12-25T01:01:32.581Z,52.18
2022-12-25T01:04:01.013Z,52.46
2022-12-25T01:06:29.196Z,52.05
2022-12-25T01:09:14.746Z,52.06
2022-12-25T01:11:42.645Z,52.51
2022-12-25T01:14:11.166Z,52.41
2022-12-25T01:16:41.094Z,52.41
2022-12-25T01:19:09.471Z,52.27
2022-12-25T01:21:37.343Z,52.64
2022-12-25T01:24:05.422Z,52.36
2022-12-25T01:26:33.323Z,52.18
2022-12-25T01:29:02.447Z,52.35
2022-12-25T01:31:30.317Z,52.35
2022-12-25T01:33:59.525Z,52.69
2022-12-25T01:36:28.002Z,52.48
2022-12-25T01:38:55.921Z,52.41
2022-12-25T01:41:26.272Z,52.80
2022-12-25T01:44:05.317Z,52.58
2022-12-25T01:46:34.200Z,52.58
2022-12-25T01:49:08.925Z,52.55
2022-12-25T01:51:41.082Z,53.13
2022-12-25T01:54:13.123Z,52.92
2022-12-25T01:56:43.424Z,52.94
2022-12-25T01:59:13.659Z,52.69
2022-12-25T02:01:41.719Z,52.72
2022-12-25T02:04:22.403Z,52.82
2022-12-25T02:06:52.732Z,53.04
2022-12-25T02:09:20.662Z,52.69
2022-12-25T02:11:57.649Z,53.21
2022-12-25T02:14:26.210Z,52.96
2022-12-25T02:17:08.336Z,52.94
2022-12-25T02:19:58.881Z,53.32
2022-12-25T02:22:38.676Z,53.19
2022-12-25T02:25:22.916Z,53.13
2022-12-25T02:28:15.063Z,53.48
2022-12-25T02:30:47.302Z,53.38
2022-12-25T02:33:45.942Z,53.38
2022-12-25T02:36:21.981Z,53.20
2022-12-25T02:39:12.495Z,53.25
2022-12-25T02:41:44.635Z,53.16
2022-12-25T02:44:37.794Z,53.59
2022-12-25T02:47:24.928Z,53.29
2022-12-25T02:50:11.975Z,53.62
2022-12-25T02:52:59.779Z,52.96
2022-12-25T02:55:51.312Z,53.55
2022-12-25T02:58:41.032Z,53.08
2022-12-25T03:01:33.568Z,53.49
2022-12-25T03:04:23.614Z,53.57
2022-12-25T03:07:10.245Z,53.24
2022-12-25T03:09:59.481Z,53.46
2022-12-25T03:12:43.572Z,53.50
2022-12-25T03:15:31.195Z,53.48
2022-12-25T03:18:04.152Z,53.65
2022-12-25T03:20:49.987Z,54.02
2022-12-25T03:23:41.330Z,53.15
2022-12-25T03:26:27.414Z,53.29
2022-12-25T03:28:55.469Z,53.54
2022-12-25T03:31:39.926Z,53.28
2022-12-25T03:34:48.222Z,53.27
2022-12-25T03:37:50.402Z,53.32
2022-12-25T03:40:45.207Z,53.37
2022-12-25T03:43:40.365Z,53.19
2022-12-25T03:46:32.583Z,53.27
2022-12-25T03:49:25.749Z,53.13
2022-12-25T03:52:16.142Z,53.33
2022-12-25T03:55:04.340Z,53.50
2022-12-25T03:57:52.720Z,53.51
2022-12-25T04:00:38.498Z,53.41
2022-12-25T04:03:23.853Z,53.34
2022-12-25T04:06:09.276Z,53.66
2022-12-25T04:08:55.918Z,53.33
2022-12-25T04:11:41.271Z,53.66
2022-12-25T04:14:26.614Z,53.56
2022-12-25T04:17:11.808Z,53.24
2022-12-25T04:19:56.895Z,53.57
2022-12-25T04:22:42.052Z,53.15
2022-12-25T04:25:29.269Z,53.73
2022-12-25T04:28:19.600Z,53.81
2022-12-25T04:31:05.397Z,53.17
2022-12-25T04:33:50.509Z,53.51
2022-12-25T04:36:18.477Z,53.55
2022-12-25T04:38:46.298Z,53.83
2022-12-25T04:41:15.581Z,53.59
2022-12-25T04:43:43.532Z,53.70
2022-12-25T04:46:11.393Z,53.83
2022-12-25T04:48:39.438Z,53.33
2022-12-25T04:51:12.322Z,53.38
2022-12-25T04:53:40.028Z,54.08
2022-12-25T04:56:07.999Z,53.77
2022-12-25T04:58:37.335Z,53.23
2022-12-25T05:01:06.138Z,53.70
2022-12-25T05:03:34.623Z,53.67
2022-12-25T05:06:03.171Z,53.62
2022-12-25T05:08:32.161Z,53.36
2022-12-25T05:11:00.110Z,53.57
2022-12-25T05:13:27.966Z,53.55
2022-12-25T05:15:57.234Z,53.36
2022-12-25T05:18:25.764Z,53.92
2022-12-25T05:20:54.280Z,53.62
2022-12-25T05:23:22.898Z,53.84
2022-12-25T05:25:50.763Z,53.70
2022-12-25T05:28:19.217Z,53.39
2022-12-25T05:30:46.921Z,53.60
2022-12-25T05:33:16.096Z,53.74
2022-12-25T05:35:43.931Z,53.71
2022-12-25T05:38:11.762Z,53.56
2022-12-25T05:40:41.805Z,53.74
2022-12-25T05:43:10.097Z,53.32
2022-12-25T05:45:37.864Z,53.26
2022-12-25T05:48:05.914Z,53.87
2022-12-25T05:50:37.781Z,53.38
2022-12-25T05:53:08.316Z,53.71
2022-12-25T05:55:37.158Z,53.49
2022-12-25T05:58:05.340Z,53.81
2022-12-25T06:00:33.818Z,53.37
2022-12-25T06:03:02.143Z,53.71
2022-12-25T06:05:31.102Z,53.54
2022-12-25T06:08:00.202Z,53.22
2022-12-25T06:10:28.087Z,53.47
2022-12-25T06:12:55.881Z,53.63
2022-12-25T06:15:23.766Z,53.84
2022-12-25T06:17:51.543Z,53.67
2022-12-25T06:20:19.555Z,53.49
2022-12-25T06:22:47.436Z,53.36
2022-12-25T06:25:16.857Z,53.83
2022-12-25T06:27:44.705Z,53.33
2022-12-25T06:30:12.968Z,53.62
2022-12-25T06:32:40.945Z,53.84
2022-12-25T06:35:09.276Z,53.90
2022-12-25T06:37:36.977Z,53.44
2022-12-25T06:40:05.674Z,53.38
2022-12-25T06:42:34.779Z,53.74
2022-12-25T06:45:02.743Z,53.67
2022-12-25T06:47:30.581Z,53.36
2022-12-25T06:49:58.334Z,53.79
2022-12-25T06:52:26.344Z,53.62
2022-12-25T06:54:54.138Z,53.46
2022-12-25T06:57:21.875Z,53.82
2022-12-25T06:59:55.183Z,53.75
2022-12-25T07:02:25.396Z,53.50
2022-12-25T07:04:54.060Z,53.57
2022-12-25T07:07:23.654Z,53.59
2022-12-25T07:09:51.570Z,53.79
2022-12-25T07:12:21.110Z,53.61
2022-12-25T07:14:50.317Z,53.65
2022-12-25T07:17:21.131Z,53.71
2022-12-25T07:19:49.193Z,53.46
2022-12-25T07:22:17.770Z,53.30
2022-12-25T07:24:45.669Z,53.82
2022-12-25T07:27:13.495Z,53.40
2022-12-25T07:29:41.434Z,53.27
2022-12-25T07:32:10.031Z,53.65
2022-12-25T07:34:39.220Z,53.63
2022-12-25T07:37:06.977Z,53.42
2022-12-25T07:39:35.580Z,53.66
2022-12-25T07:42:03.394Z,53.40
2022-12-25T07:44:40.671Z,53.32
2022-12-25T07:47:08.500Z,53.63
2022-12-25T07:49:39.589Z,53.68
2022-12-25T07:52:08.704Z,53.70
2022-12-25T07:54:36.525Z,53.45
2022-12-25T07:57:04.452Z,53.51
2022-12-25T07:59:32.385Z,53.40
2022-12-25T08:02:00.495Z,53.96
2022-12-25T08:04:28.571Z,53.83
2022-12-25T08:06:56.785Z,53.76
2022-12-25T08:09:26.128Z,53.46
2022-12-25T08:11:54.058Z,53.54
2022-12-25T08:14:21.895Z,53.50
2022-12-25T08:16:52.699Z,53.76
2022-12-25T08:19:20.692Z,53.62
2022-12-25T08:21:48.483Z,53.54
2022-12-25T08:24:16.845Z,53.98
2022-12-25T08:26:45.959Z,53.50
2022-12-25T08:29:13.754Z,53.32
2022-12-25T08:31:46.333Z,53.56
2022-12-25T08:34:15.056Z,53.28
2022-12-25T08:36:42.903Z,53.37
2022-12-25T08:39:10.997Z,53.39
2022-12-25T08:41:39.103Z,53.91
2022-12-25T08:44:08.721Z,53.81
2022-12-25T08:46:36.792Z,53.51
2022-12-25T08:49:04.712Z,53.48
2022-12-25T08:51:32.564Z,54.05
2022-12-25T08:54:01.563Z,53.68
2022-12-25T08:56:29.593Z,53.95
2022-12-25T08:58:57.597Z,53.52
2022-12-25T09:01:26.877Z,53.99
2022-12-25T09:03:54.888Z,53.88
2022-12-25T09:06:22.807Z,53.60
2022-12-25T09:08:51.308Z,54.01
2022-12-25T09:11:20.620Z,53.68
2022-12-25T09:13:48.480Z,53.97
2022-12-25T09:16:19.065Z,54.03
2022-12-25T09:18:48.440Z,54.08
2022-12-25T09:21:17.655Z,54.13
2022-12-25T09:23:46.131Z,54.28
2022-12-25T09:26:15.890Z,54.01
2022-12-25T09:28:50.627Z,54.34
2022-12-25T09:31:22.466Z,54.32
2022-12-25T09:33:52.251Z,54.45
2022-12-25T09:36:23.195Z,54.38
2022-12-25T09:38:51.072Z,54.55
2022-12-25T09:41:24.031Z,54.31
2022-12-25T09:43:56.339Z,54.28
2022-12-25T09:46:34.844Z,54.98
2022-12-25T09:49:14.047Z,54.66
2022-12-25T09:51:45.206Z,54.80
2022-12-25T09:54:20.721Z,54.74
2022-12-25T09:56:48.731Z,54.95
2022-12-25T09:59:27.182Z,55.05
2022-12-25T10:02:05.741Z,55.56
2022-12-25T10:04:52.139Z,55.33
2022-12-25T10:07:30.493Z,55.82
2022-12-25T10:10:13.429Z,55.46
2022-12-25T10:12:50.352Z,55.56
2022-12-25T10:15:31.545Z,55.67
2022-12-25T10:18:18.298Z,56.23
2022-12-25T10:20:53.134Z,56.25
2022-12-25T10:23:27.401Z,55.84
2022-12-25T10:25:55.615Z,55.51
2022-12-25T10:28:31.021Z,55.98
2022-12-25T10:31:03.190Z,55.89
2022-12-25T10:33:31.952Z,55.64
2022-12-25T10:36:01.261Z,56.16
2022-12-25T10:38:29.145Z,56.19
2022-12-25T10:41:09.896Z,56.10
2022-12-25T10:43:42.564Z,56.57
2022-12-25T10:46:12.769Z,55.77
2022-12-25T10:48:44.612Z,56.08
2022-12-25T10:51:14.182Z,55.98
2022-12-25T10:53:44.347Z,56.14
2022-12-25T10:56:17.764Z,56.36
2022-12-25T10:58:45.721Z,56.03
2022-12-25T11:01:16.352Z,56.20
2022-12-25T11:03:48.392Z,56.14
2022-12-25T11:06:26.445Z,56.72
2022-12-25T11:08:58.543Z,56.20
2022-12-25T11:11:28.000Z,56.23
2022-12-25T11:13:59.366Z,56.45
2022-12-25T11:16:30.280Z,56.47
2022-12-25T11:18:59.905Z,56.74
2022-12-25T11:21:33.936Z,57.24
2022-12-25T11:24:03.513Z,56.94
2022-12-25T11:26:36.532Z,56.71
2022-12-25T11:29:09.219Z,56.73
2022-12-25T11:31:40.597Z,56.82
2022-12-25T11:34:16.417Z,56.95
2022-12-25T11:36:48.404Z,57.25
2022-12-25T11:39:28.891Z,57.51
2022-12-25T11:42:03.585Z,57.04
2022-12-25T11:44:40.287Z,57.42
2022-12-25T11:47:14.685Z,57.26
2022-12-25T11:49:50.389Z,57.41
2022-12-25T11:52:23.159Z,56.95
2022-12-25T11:54:59.258Z,57.64
2022-12-25T11:57:30.275Z,56.93
2022-12-25T12:00:04.256Z,57.32
2022-12-25T12:02:37.901Z,56.77
2022-12-25T12:05:14.792Z,57.52
2022-12-25T12:07:56.545Z,57.19
2022-12-25T12:10:33.376Z,57.58
2022-12-25T12:13:19.123Z,57.30
2022-12-25T12:15:48.573Z,56.69
2022-12-25T12:18:22.603Z,57.00
2022-12-25T12:21:11.001Z,57.81
2022-12-25T12:23:51.007Z,57.40
2022-12-25T12:26:21.280Z,57.14
2022-12-25T12:28:50.465Z,56.86
2022-12-25T12:31:18.460Z,57.13
2022-12-25T12:33:53.482Z,57.26
2022-12-25T12:36:34.558Z,57.24
2022-12-25T12:39:06.210Z,57.39
2022-12-25T12:41:46.573Z,57.48
2022-12-25T12:44:17.588Z,56.79
2022-12-25T12:46:53.952Z,57.54
2022-12-25T12:49:24.107Z,57.01
2022-12-25T12:52:03.449Z,57.18
2022-12-25T12:54:32.786Z,57.06
2022-12-25T12:57:02.620Z,56.74
2022-12-25T12:59:39.051Z,57.59
2022-12-25T13:02:28.009Z,57.20
2022-12-25T13:05:03.670Z,57.65
2022-12-25T13:07:44.974Z,57.43
2022-12-25T13:10:26.496Z,57.84
2022-12-25T13:12:56.115Z,57.36
2022-12-25T13:15:27.374Z,56.99
2022-12-25T13:17:57.853Z,56.91
2022-12-25T13:20:35.583Z,57.06
2022-12-25T13:23:14.831Z,57.89
2022-12-25T13:25:44.030Z,57.47
2022-12-25T13:28:15.381Z,57.43
2022-12-25T13:30:43.643Z,57.36
2022-12-25T13:33:19.531Z,57.43
2022-12-25T13:35:48.337Z,57.46
2022-12-25T13:38:18.153Z,57.11
2022-12-25T13:41:07.623Z,57.53
2022-12-25T13:43:35.612Z,57.08
2022-12-25T13:46:03.409Z,57.00
2022-12-25T13:48:31.473Z,57.25
2022-12-25T13:51:00.939Z,57.00
2022-12-25T13:53:29.015Z,57.70
2022-12-25T13:56:00.272Z,57.37
2022-12-25T13:58:31.556Z,57.22
2022-12-25T14:01:01.797Z,57.34
2022-12-25T14:03:36.250Z,57.84
2022-12-25T14:06:06.454Z,57.27
2022-12-25T14:08:36.488Z,57.59
2022-12-25T14:11:07.788Z,57.53
2022-12-25T14:13:38.892Z,57.47
2022-12-25T14:16:08.391Z,57.23
2022-12-25T14:18:36.756Z,57.45
2022-12-25T14:21:07.990Z,57.45
2022-12-25T14:23:42.779Z,57.63
2022-12-25T14:26:22.726Z,58.16
2022-12-25T14:29:18.113Z,57.84
2022-12-25T14:31:49.471Z,58.02
2022-12-25T14:34:21.894Z,57.67
2022-12-25T14:36:51.832Z,57.78
2022-12-25T14:39:34.817Z,58.21
2022-12-25T14:42:14.638Z,58.37
2022-12-25T14:44:42.871Z,57.61
2022-12-25T14:47:18.100Z,58.02
2022-12-25T14:49:47.242Z,58.03
2022-12-25T14:52:20.169Z,57.77
2022-12-25T14:54:50.874Z,57.73
2022-12-25T14:57:26.010Z,58.08
2022-12-25T15:00:05.301Z,58.33
2022-12-25T15:02:41.679Z,58.50
2022-12-25T15:05:32.678Z,58.31
2022-12-25T15:08:21.373Z,58.24
2022-12-25T15:11:00.437Z,58.13
2022-12-25T15:13:31.796Z,57.94
2022-12-25T15:16:04.665Z,58.14
2022-12-25T15:18:35.382Z,58.77
2022-12-25T15:21:04.145Z,58.13
2022-12-25T15:23:31.992Z,57.52
2022-12-25T15:25:59.809Z,57.47
2022-12-25T15:28:27.653Z,57.98
2022-12-25T15:30:57.200Z,57.92
2022-12-25T15:33:28.784Z,57.63
2022-12-25T15:35:58.502Z,57.59
2022-12-25T15:38:27.277Z,57.69
2022-12-25T15:40:55.761Z,57.62
2022-12-25T15:43:40.284Z,57.96
2022-12-25T15:46:11.054Z,57.86
2022-12-25T15:48:39.035Z,57.92
2022-12-25T15:51:06.935Z,57.44
2022-12-25T15:53:34.847Z,58.08
2022-12-25T15:56:02.740Z,57.53
2022-12-25T15:58:30.521Z,57.98
2022-12-25T16:00:58.313Z,58.02
2022-12-25T16:03:27.763Z,57.89
2022-12-25T16:05:55.786Z,57.88
2022-12-25T16:08:24.063Z,57.73
2022-12-25T16:10:53.012Z,58.03
2022-12-25T16:13:20.828Z,57.53
2022-12-25T16:15:48.654Z,57.64
2022-12-25T16:18:16.553Z,57.47
2022-12-25T16:20:45.789Z,57.52
2022-12-25T16:23:13.688Z,57.56
2022-12-25T16:25:41.464Z,57.71
2022-12-25T16:28:10.318Z,57.53
2022-12-25T16:30:46.389Z,57.55
2022-12-25T16:33:15.418Z,58.00
2022-12-25T16:35:45.303Z,57.58
2022-12-25T16:38:13.316Z,57.51
2022-12-25T16:40:41.384Z,57.80
2022-12-25T16:43:09.298Z,57.38
2022-12-25T16:45:39.489Z,57.38
2022-12-25T16:48:08.773Z,57.78
2022-12-25T16:50:39.228Z,57.88
2022-12-25T16:53:08.719Z,57.96
2022-12-25T16:55:38.776Z,57.46
2022-12-25T16:58:07.813Z,57.98
2022-12-25T17:00:35.879Z,57.87
2022-12-25T17:03:03.953Z,57.79
2022-12-25T17:05:34.565Z,57.75
2022-12-25T17:08:02.519Z,57.61
2022-12-25T17:10:32.452Z,57.69
2022-12-25T17:13:00.598Z,57.41
2022-12-25T17:15:29.081Z,57.27
2022-12-25T17:17:57.027Z,57.14
2022-12-25T17:20:25.095Z,57.46
2022-12-25T17:22:53.050Z,56.87
2022-12-25T17:25:21.020Z,57.34
2022-12-25T17:27:51.136Z,57.30
2022-12-25T17:30:19.055Z,57.43
2022-12-25T17:32:47.185Z,57.18
2022-12-25T17:35:15.293Z,57.03
2022-12-25T17:37:45.467Z,57.13
2022-12-25T17:40:14.229Z,56.88
2022-12-25T17:42:42.288Z,57.16
2022-12-25T17:45:16.519Z,57.16
2022-12-25T17:47:47.346Z,57.13
2022-12-25T17:50:25.514Z,56.83
2022-12-25T17:52:53.857Z,57.21
2022-12-25T17:55:21.767Z,56.82
2022-12-25T17:57:49.889Z,57.25
2022-12-25T18:00:20.325Z,56.55
2022-12-25T18:02:48.454Z,56.62
2022-12-25T18:05:16.698Z,56.65
2022-12-25T18:07:44.910Z,56.55
2022-12-25T18:10:14.850Z,56.96
2022-12-25T18:12:44.496Z,56.60
2022-12-25T18:15:13.235Z,56.81
2022-12-25T18:17:42.426Z,56.73
2022-12-25T18:20:12.924Z,56.91
2022-12-25T18:22:40.727Z,56.41
2022-12-25T18:25:09.409Z,56.96
2022-12-25T18:27:37.443Z,56.82
2022-12-25T18:30:06.205Z,56.64
2022-12-25T18:32:34.380Z,56.81
2022-12-25T18:35:04.418Z,56.39
2022-12-25T18:37:39.419Z,56.36
2022-12-25T18:40:10.325Z,56.31
2022-12-25T18:42:41.024Z,56.16
2022-12-25T18:45:11.650Z,56.29
2022-12-25T18:47:39.852Z,56.04
2022-12-25T18:50:10.765Z,56.20
2022-12-25T18:52:50.901Z,56.16
2022-12-25T18:55:21.113Z,56.52
2022-12-25T18:57:49.515Z,55.92
2022-12-25T19:00:18.204Z,56.31
2022-12-25T19:02:46.140Z,56.17
2022-12-25T19:05:15.701Z,56.05
2022-12-25T19:07:43.924Z,55.97
2022-12-25T19:10:11.786Z,56.02
2022-12-25T19:12:39.647Z,56.40
2022-12-25T19:15:08.511Z,56.16
2022-12-25T19:17:36.272Z,56.21
2022-12-25T19:20:05.937Z,56.33
2022-12-25T19:22:35.096Z,56.00
2022-12-25T19:25:03.128Z,56.38
2022-12-25T19:27:31.044Z,55.90
2022-12-25T19:29:58.820Z,56.14
2022-12-25T19:32:26.821Z,55.86
2022-12-25T19:34:54.647Z,56.26
2022-12-25T19:37:24.408Z,56.17
2022-12-25T19:39:54.047Z,55.75
2022-12-25T19:42:22.867Z,56.14
2022-12-25T19:44:51.203Z,55.95
2022-12-25T19:47:19.089Z,55.60
2022-12-25T19:49:52.535Z,55.84
2022-12-25T19:52:21.117Z,55.69
2022-12-25T19:54:53.048Z,55.62
2022-12-25T19:57:20.913Z,55.69
2022-12-25T19:59:50.147Z,56.04
2022-12-25T20:02:18.144Z,55.73
2022-12-25T20:04:46.008Z,56.06
2022-12-25T20:07:13.908Z,55.59
2022-12-25T20:09:41.697Z,55.95
2022-12-25T20:12:11.259Z,56.03
2022-12-25T20:14:39.123Z,56.12
2022-12-25T20:17:12.147Z,55.64
2022-12-25T20:19:43.372Z,55.64
2022-12-25T20:22:11.164Z,55.75
2022-12-25T20:24:39.004Z,55.87
2022-12-25T20:27:06.838Z,56.31
2022-12-25T20:29:37.413Z,56.00
2022-12-25T20:32:05.867Z,56.00
2022-12-25T20:34:33.678Z,56.01
2022-12-25T20:37:01.554Z,56.10
2022-12-25T20:39:29.399Z,55.91
2022-12-25T20:41:57.353Z,55.74
2022-12-25T20:44:25.235Z,55.82
2022-12-25T20:46:54.915Z,56.00
2022-12-25T20:49:22.765Z,55.94
2022-12-25T20:51:50.678Z,55.86
2022-12-25T20:54:18.508Z,55.66
2022-12-25T20:56:46.439Z,55.71
2022-12-25T20:59:14.554Z,55.32
2022-12-25T21:01:42.591Z,55.87
2022-12-25T21:04:16.168Z,55.80
2022-12-25T21:06:44.588Z,55.39
2022-12-25T21:09:12.396Z,55.51
2022-12-25T21:11:40.710Z,55.88
2022-12-25T21:14:08.766Z,55.54
2022-12-25T21:16:36.822Z,55.61
2022-12-25T21:19:04.753Z,55.95
2022-12-25T21:21:35.934Z,55.87
2022-12-25T21:24:03.922Z,55.54
2022-12-25T21:26:32.343Z,55.81
2022-12-25T21:29:02.184Z,55.68
2022-12-25T21:31:30.941Z,55.38
2022-12-25T21:33:57.977Z,55.23
2022-12-25T21:36:28.750Z,55.38
2022-12-25T21:38:59.870Z,55.85
2022-12-25T21:41:29.029Z,55.96
2022-12-25T21:43:57.399Z,55.88
2022-12-25T21:46:26.746Z,55.54
2022-12-25T21:48:55.454Z,55.82
2022-12-25T21:51:42.536Z,55.69
2022-12-25T21:54:13.783Z,55.34
2022-12-25T21:56:45.433Z,55.74
2022-12-25T21:59:16.318Z,55.55
2022-12-25T22:01:45.301Z,55.56
2022-12-25T22:04:15.310Z,55.77
2022-12-25T22:07:00.809Z,55.47
2022-12-25T22:09:30.644Z,55.71
2022-12-25T22:12:16.544Z,56.19
2022-12-25T22:14:56.641Z,55.95
2022-12-25T22:17:44.100Z,56.13
2022-12-25T22:20:15.012Z,56.29
2022-12-25T22:22:43.044Z,56.39
2022-12-25T22:25:12.700Z,56.29
2022-12-25T22:27:41.563Z,56.88
2022-12-25T22:30:11.899Z,56.82
2022-12-25T22:32:40.096Z,56.67
2022-12-25T22:35:08.678Z,56.56
2022-12-25T22:37:36.956Z,57.21
2022-12-25T22:40:06.172Z,56.85
2022-12-25T22:42:35.655Z,56.89
2022-12-25T22:45:04.648Z,57.27
2022-12-25T22:47:32.677Z,57.30
2022-12-25T22:50:00.564Z,56.93
2022-12-25T22:52:28.415Z,57.16
2022-12-25T22:54:56.298Z,57.21
2022-12-25T22:57:24.291Z,57.27
2022-12-25T22:59:54.096Z,57.29
2022-12-25T23:02:22.332Z,57.76
2022-12-25T23:04:50.253Z,57.32
2022-12-25T23:07:18.440Z,57.86
2022-12-25T23:09:46.473Z,57.93
2022-12-25T23:12:28.328Z,57.82
2022-12-25T23:14:58.045Z,57.86
2022-12-25T23:17:43.209Z,57.38
2022-12-25T23:20:31.427Z,58.01
2022-12-25T23:23:16.592Z,57.59
2022-12-25T23:26:01.874Z,57.47
2022-12-25T23:28:47.204Z,57.52
2022-12-25T23:31:16.705Z,57.66
2022-12-25T23:33:44.722Z,57.65
2022-12-25T23:36:12.588Z,58.18
2022-12-25T23:38:40.498Z,57.96
2022-12-25T23:41:08.954Z,57.82
2022-12-25T23:43:36.758Z,57.78
2022-12-25T23:46:04.985Z,57.53
2022-12-25T23:48:34.210Z,57.82
2022-12-25T23:51:04.363Z,58.26
2022-12-25T23:53:32.359Z,57.82
2022-12-25T23:56:00.456Z,57.69
2022-12-25T23:58:29.530Z,58.23
